sensor_id;sensor_type;location;lat;lon;timestamp;temperature;humidity
23137;DHT22;11737;50.558;7.258;2022-11-23T00:04:18;10.70;99.90
23137;DHT22;11737;50.558;7.258;2022-11-23T00:06:46;10.70;99.90
23137;DHT22;11737;50.558;7.258;2022-11-23T00:09:13;10.70;99.90
23137;DHT22;11737;50.558;7.258;2022-11-23T00:11:41;10.70;99.90
23137;DHT22;11737;50.558;7.258;2022-11-23T00:14:08;10.70;99.90
23137;DHT22;11737;50.558;7.258;2022-11-23T00:16:36;10.70;99.90
23137;DHT22;11737;50.558;7.258;2022-11-23T00:19:03;10.60;99.90
23137;DHT22;11737;50.558;7.258;2022-11-23T00:21:31;10.70;99.90
23137;DHT22;11737;50.558;7.258;2022-11-23T00:23:59;10.80;99.90
23137;DHT22;11737;50.558;7.258;2022-11-23T00:26:27;10.70;99.90
23137;DHT22;11737;50.558;7.258;2022-11-23T00:28:54;10.80;99.90
23137;DHT22;11737;50.558;7.258;2022-11-23T00:31:22;10.80;99.90
23137;DHT22;11737;50.558;7.258;2022-11-23T00:33:52;10.70;99.90
23137;DHT22;11737;50.558;7.258;2022-11-23T00:36:21;10.70;99.90
23137;DHT22;11737;50.558;7.258;2022-11-23T00:38:50;10.80;99.90
23137;DHT22;11737;50.558;7.258;2022-11-23T00:41:21;10.80;99.90
23137;DHT22;11737;50.558;7.258;2022-11-23T00:43:49;10.80;99.90
23137;DHT22;11737;50.558;7.258;2022-11-23T00:46:26;10.80;99.90
23137;DHT22;11737;50.558;7.258;2022-11-23T00:48:52;10.80;99.90
23137;DHT22;11737;50.558;7.258;2022-11-23T00:51:22;10.80;99.90
23137;DHT22;11737;50.558;7.258;2022-11-23T00:53:51;10.80;99.90
23137;DHT22;11737;50.558;7.258;2022-11-23T00:56:38;10.80;99.90
23137;DHT22;11737;50.558;7.258;2022-11-23T00:59:05;10.80;99.90
23137;DHT22;11737;50.558;7.258;2022-11-23T01:01:34;10.80;99.90
23137;DHT22;11737;50.558;7.258;2022-11-23T01:04:06;10.80;99.90
23137;DHT22;11737;50.558;7.258;2022-11-23T01:06:36;10.80;99.90
23137;DHT22;11737;50.558;7.258;2022-11-23T01:09:11;10.70;99.90
23137;DHT22;11737;50.558;7.258;2022-11-23T01:11:35;10.70;99.90
23137;DHT22;11737;50.558;7.258;2022-11-23T01:14:03;10.70;99.90
23137;DHT22;11737;50.558;7.258;2022-11-23T01:16:33;10.70;99.90
23137;DHT22;11737;50.558;7.258;2022-11-23T01:19:04;10.70;99.90
23137;DHT22;11737;50.558;7.258;2022-11-23T01:21:33;10.70;99.90
23137;DHT22;11737;50.558;7.258;2022-11-23T01:26:53;10.80;99.90
23137;DHT22;11737;50.558;7.258;2022-11-23T01:29:22;10.80;99.90
23137;DHT22;11737;50.558;7.258;2022-11-23T01:31:50;10.80;99.90
23137;DHT22;11737;50.558;7.258;2022-11-23T01:34:17;10.70;99.90
23137;DHT22;11737;50.558;7.258;2022-11-23T01:36:45;10.80;99.90
23137;DHT22;11737;50.558;7.258;2022-11-23T01:39:13;10.70;99.90
23137;DHT22;11737;50.558;7.258;2022-11-23T01:41:43;10.80;99.90
23137;DHT22;11737;50.558;7.258;2022-11-23T01:44:25;10.70;99.90
23137;DHT22;11737;50.558;7.258;2022-11-23T01:47:12;10.70;99.90
23137;DHT22;11737;50.558;7.258;2022-11-23T01:49:45;10.70;99.90
23137;DHT22;11737;50.558;7.258;2022-11-23T01:55:05;10.70;99.90
23137;DHT22;11737;50.558;7.258;2022-11-23T01:57:36;10.70;99.90
23137;DHT22;11737;50.558;7.258;2022-11-23T02:00:03;10.70;99.90
23137;DHT22;11737;50.558;7.258;2022-11-23T02:02:32;10.70;99.90
23137;DHT22;11737;50.558;7.258;2022-11-23T02:05:01;10.70;99.90
23137;DHT22;11737;50.558;7.258;2022-11-23T02:07:29;10.70;99.90
23137;DHT22;11737;50.558;7.258;2022-11-23T02:09:57;10.70;99.90
23137;DHT22;11737;50.558;7.258;2022-11-23T02:12:25;10.70;99.90
23137;DHT22;11737;50.558;7.258;2022-11-23T02:14:53;10.70;99.90
23137;DHT22;11737;50.558;7.258;2022-11-23T02:17:20;10.80;99.90
23137;DHT22;11737;50.558;7.258;2022-11-23T02:19:58;10.70;99.90
23137;DHT22;11737;50.558;7.258;2022-11-23T02:25:29;10.70;99.90
23137;DHT22;11737;50.558;7.258;2022-11-23T02:27:55;10.70;99.90
23137;DHT22;11737;50.558;7.258;2022-11-23T02:30:23;10.70;99.90
23137;DHT22;11737;50.558;7.258;2022-11-23T02:32:51;10.70;99.90
23137;DHT22;11737;50.558;7.258;2022-11-23T02:35:18;10.70;99.90
23137;DHT22;11737;50.558;7.258;2022-11-23T02:37:46;10.70;99.90
23137;DHT22;11737;50.558;7.258;2022-11-23T02:40:29;10.60;99.90
23137;DHT22;11737;50.558;7.258;2022-11-23T02:42:57;10.60;99.90
23137;DHT22;11737;50.558;7.258;2022-11-23T02:48:14;10.70;99.90
23137;DHT22;11737;50.558;7.258;2022-11-23T02:50:42;10.60;99.90
23137;DHT22;11737;50.558;7.258;2022-11-23T02:53:10;10.60;99.90
23137;DHT22;11737;50.558;7.258;2022-11-23T02:55:38;10.60;99.90
23137;DHT22;11737;50.558;7.258;2022-11-23T02:58:06;10.60;99.90
23137;DHT22;11737;50.558;7.258;2022-11-23T03:00:34;10.60;99.90
23137;DHT22;11737;50.558;7.258;2022-11-23T03:03:01;10.70;99.90
23137;DHT22;11737;50.558;7.258;2022-11-23T03:05:29;10.70;99.90
23137;DHT22;11737;50.558;7.258;2022-11-23T03:07:57;10.70;99.90
23137;DHT22;11737;50.558;7.258;2022-11-23T03:10:25;10.70;99.90
23137;DHT22;11737;50.558;7.258;2022-11-23T03:12:54;10.70;99.90
23137;DHT22;11737;50.558;7.258;2022-11-23T03:15:23;10.80;99.90
23137;DHT22;11737;50.558;7.258;2022-11-23T03:17:50;10.80;99.90
23137;DHT22;11737;50.558;7.258;2022-11-23T03:20:18;10.70;99.90
23137;DHT22;11737;50.558;7.258;2022-11-23T03:22:45;10.70;99.90
23137;DHT22;11737;50.558;7.258;2022-11-23T03:25:13;10.70;99.90
23137;DHT22;11737;50.558;7.258;2022-11-23T03:27:40;10.70;99.90
23137;DHT22;11737;50.558;7.258;2022-11-23T03:30:08;10.70;99.90
23137;DHT22;11737;50.558;7.258;2022-11-23T03:32:36;10.70;99.90
23137;DHT22;11737;50.558;7.258;2022-11-23T03:35:05;10.60;99.90
23137;DHT22;11737;50.558;7.258;2022-11-23T03:37:33;10.60;99.90
23137;DHT22;11737;50.558;7.258;2022-11-23T03:40:00;10.50;99.90
23137;DHT22;11737;50.558;7.258;2022-11-23T03:42:28;10.50;99.90
23137;DHT22;11737;50.558;7.258;2022-11-23T03:44:55;10.50;99.90
23137;DHT22;11737;50.558;7.258;2022-11-23T03:47:23;10.40;99.90
23137;DHT22;11737;50.558;7.258;2022-11-23T03:49:50;10.40;99.90
23137;DHT22;11737;50.558;7.258;2022-11-23T03:52:18;10.40;99.90
23137;DHT22;11737;50.558;7.258;2022-11-23T03:54:45;10.30;99.90
23137;DHT22;11737;50.558;7.258;2022-11-23T03:57:13;10.40;99.90
23137;DHT22;11737;50.558;7.258;2022-11-23T03:59:41;10.30;99.90
23137;DHT22;11737;50.558;7.258;2022-11-23T04:02:08;10.40;99.90
23137;DHT22;11737;50.558;7.258;2022-11-23T04:04:36;10.40;99.90
23137;DHT22;11737;50.558;7.258;2022-11-23T04:07:04;10.40;99.90
23137;DHT22;11737;50.558;7.258;2022-11-23T04:09:31;10.40;99.90
23137;DHT22;11737;50.558;7.258;2022-11-23T04:11:59;10.40;99.90
23137;DHT22;11737;50.558;7.258;2022-11-23T04:14:26;10.40;99.90
23137;DHT22;11737;50.558;7.258;2022-11-23T04:16:54;10.40;99.90
23137;DHT22;11737;50.558;7.258;2022-11-23T04:19:21;10.40;99.90
23137;DHT22;11737;50.558;7.258;2022-11-23T04:21:49;10.40;99.90
23137;DHT22;11737;50.558;7.258;2022-11-23T04:24:16;10.40;99.90
23137;DHT22;11737;50.558;7.258;2022-11-23T04:26:44;10.40;99.90
23137;DHT22;11737;50.558;7.258;2022-11-23T04:29:11;10.30;99.90
23137;DHT22;11737;50.558;7.258;2022-11-23T04:31:39;10.30;99.90
23137;DHT22;11737;50.558;7.258;2022-11-23T04:34:06;10.10;99.90
23137;DHT22;11737;50.558;7.258;2022-11-23T04:36:34;10.10;99.90
23137;DHT22;11737;50.558;7.258;2022-11-23T04:39:01;10.10;99.90
23137;DHT22;11737;50.558;7.258;2022-11-23T04:41:29;10.10;99.90
23137;DHT22;11737;50.558;7.258;2022-11-23T04:43:57;10.10;99.90
23137;DHT22;11737;50.558;7.258;2022-11-23T04:46:24;10.10;99.90
23137;DHT22;11737;50.558;7.258;2022-11-23T04:48:52;10.20;99.90
23137;DHT22;11737;50.558;7.258;2022-11-23T04:51:19;10.10;99.90
23137;DHT22;11737;50.558;7.258;2022-11-23T04:53:47;10.10;99.90
23137;DHT22;11737;50.558;7.258;2022-11-23T04:56:15;10.10;99.90
23137;DHT22;11737;50.558;7.258;2022-11-23T04:58:42;10.20;99.90
23137;DHT22;11737;50.558;7.258;2022-11-23T05:01:10;10.20;99.90
23137;DHT22;11737;50.558;7.258;2022-11-23T05:03:37;10.20;99.90
23137;DHT22;11737;50.558;7.258;2022-11-23T05:06:05;10.20;99.90
23137;DHT22;11737;50.558;7.258;2022-11-23T05:08:32;10.10;99.90
23137;DHT22;11737;50.558;7.258;2022-11-23T05:11:00;10.10;99.90
23137;DHT22;11737;50.558;7.258;2022-11-23T05:13:27;10.20;99.90
23137;DHT22;11737;50.558;7.258;2022-11-23T05:15:55;10.10;99.90
23137;DHT22;11737;50.558;7.258;2022-11-23T05:18:22;10.10;99.90
23137;DHT22;11737;50.558;7.258;2022-11-23T05:20:50;10.10;99.90
23137;DHT22;11737;50.558;7.258;2022-11-23T05:23:17;10.10;99.90
23137;DHT22;11737;50.558;7.258;2022-11-23T05:25:45;10.20;99.90
23137;DHT22;11737;50.558;7.258;2022-11-23T05:28:15;10.20;99.90
23137;DHT22;11737;50.558;7.258;2022-11-23T05:30:44;10.20;99.90
23137;DHT22;11737;50.558;7.258;2022-11-23T05:33:12;10.20;99.90
23137;DHT22;11737;50.558;7.258;2022-11-23T05:35:39;10.20;99.90
23137;DHT22;11737;50.558;7.258;2022-11-23T05:38:07;10.10;99.90
23137;DHT22;11737;50.558;7.258;2022-11-23T05:40:35;10.10;99.90
23137;DHT22;11737;50.558;7.258;2022-11-23T05:43:22;10.20;99.90
23137;DHT22;11737;50.558;7.258;2022-11-23T05:45:49;10.10;99.90
23137;DHT22;11737;50.558;7.258;2022-11-23T05:48:17;10.10;99.90
23137;DHT22;11737;50.558;7.258;2022-11-23T05:50:44;10.10;99.90
23137;DHT22;11737;50.558;7.258;2022-11-23T05:53:12;10.20;99.90
23137;DHT22;11737;50.558;7.258;2022-11-23T05:55:39;10.10;99.90
23137;DHT22;11737;50.558;7.258;2022-11-23T05:58:07;10.10;99.90
23137;DHT22;11737;50.558;7.258;2022-11-23T06:00:34;10.20;99.90
23137;DHT22;11737;50.558;7.258;2022-11-23T06:03:02;10.20;99.90
23137;DHT22;11737;50.558;7.258;2022-11-23T06:05:30;10.30;99.90
23137;DHT22;11737;50.558;7.258;2022-11-23T06:07:58;10.30;99.90
23137;DHT22;11737;50.558;7.258;2022-11-23T06:10:25;10.30;99.90
23137;DHT22;11737;50.558;7.258;2022-11-23T06:12:53;10.30;99.90
23137;DHT22;11737;50.558;7.258;2022-11-23T06:15:21;10.30;99.90
23137;DHT22;11737;50.558;7.258;2022-11-23T06:18:08;10.40;99.90
23137;DHT22;11737;50.558;7.258;2022-11-23T06:20:36;10.40;99.90
23137;DHT22;11737;50.558;7.258;2022-11-23T06:23:04;10.40;99.90
23137;DHT22;11737;50.558;7.258;2022-11-23T06:25:31;10.40;99.90
23137;DHT22;11737;50.558;7.258;2022-11-23T06:28:00;10.40;99.90
23137;DHT22;11737;50.558;7.258;2022-11-23T06:30:28;10.40;99.90
23137;DHT22;11737;50.558;7.258;2022-11-23T06:32:56;10.40;99.90
23137;DHT22;11737;50.558;7.258;2022-11-23T06:35:24;10.40;99.90
23137;DHT22;11737;50.558;7.258;2022-11-23T06:37:52;10.40;99.90
23137;DHT22;11737;50.558;7.258;2022-11-23T06:40:20;10.40;99.90
23137;DHT22;11737;50.558;7.258;2022-11-23T06:42:48;10.50;99.90
23137;DHT22;11737;50.558;7.258;2022-11-23T06:45:15;10.50;99.90
23137;DHT22;11737;50.558;7.258;2022-11-23T06:47:43;10.50;99.90
23137;DHT22;11737;50.558;7.258;2022-11-23T06:50:10;10.50;99.90
23137;DHT22;11737;50.558;7.258;2022-11-23T06:52:39;10.50;99.90
23137;DHT22;11737;50.558;7.258;2022-11-23T06:55:07;10.40;99.90
23137;DHT22;11737;50.558;7.258;2022-11-23T06:57:35;10.50;99.90
23137;DHT22;11737;50.558;7.258;2022-11-23T07:00:04;10.50;99.90
23137;DHT22;11737;50.558;7.258;2022-11-23T07:02:31;10.50;99.90
23137;DHT22;11737;50.558;7.258;2022-11-23T07:04:59;10.50;99.90
23137;DHT22;11737;50.558;7.258;2022-11-23T07:07:26;10.60;99.90
23137;DHT22;11737;50.558;7.258;2022-11-23T07:09:54;10.60;99.90
23137;DHT22;11737;50.558;7.258;2022-11-23T07:12:21;10.60;99.90
23137;DHT22;11737;50.558;7.258;2022-11-23T07:14:49;10.60;99.90
23137;DHT22;11737;50.558;7.258;2022-11-23T07:17:16;10.60;99.90
23137;DHT22;11737;50.558;7.258;2022-11-23T07:19:44;10.60;99.90
23137;DHT22;11737;50.558;7.258;2022-11-23T07:22:11;10.50;99.90
23137;DHT22;11737;50.558;7.258;2022-11-23T07:24:39;10.50;99.90
23137;DHT22;11737;50.558;7.258;2022-11-23T07:27:06;10.50;99.90
23137;DHT22;11737;50.558;7.258;2022-11-23T07:29:34;10.50;99.90
23137;DHT22;11737;50.558;7.258;2022-11-23T07:32:01;10.40;99.90
23137;DHT22;11737;50.558;7.258;2022-11-23T07:34:29;10.30;99.90
23137;DHT22;11737;50.558;7.258;2022-11-23T07:36:56;10.30;99.90
23137;DHT22;11737;50.558;7.258;2022-11-23T07:39:24;10.30;99.90
23137;DHT22;11737;50.558;7.258;2022-11-23T07:41:51;10.30;99.90
23137;DHT22;11737;50.558;7.258;2022-11-23T07:44:19;10.40;99.90
23137;DHT22;11737;50.558;7.258;2022-11-23T07:46:46;10.40;99.90
23137;DHT22;11737;50.558;7.258;2022-11-23T07:49:14;10.40;99.90
23137;DHT22;11737;50.558;7.258;2022-11-23T07:51:41;10.50;99.90
23137;DHT22;11737;50.558;7.258;2022-11-23T07:54:09;10.50;99.90
23137;DHT22;11737;50.558;7.258;2022-11-23T07:56:36;10.60;99.90
23137;DHT22;11737;50.558;7.258;2022-11-23T07:59:04;10.60;99.90
23137;DHT22;11737;50.558;7.258;2022-11-23T08:01:31;10.70;99.90
23137;DHT22;11737;50.558;7.258;2022-11-23T08:03:59;10.70;99.90
23137;DHT22;11737;50.558;7.258;2022-11-23T08:06:26;10.70;99.90
23137;DHT22;11737;50.558;7.258;2022-11-23T08:08:54;10.80;99.90
23137;DHT22;11737;50.558;7.258;2022-11-23T08:11:22;10.80;99.90
23137;DHT22;11737;50.558;7.258;2022-11-23T08:13:49;10.80;99.90
23137;DHT22;11737;50.558;7.258;2022-11-23T08:16:17;10.90;99.90
23137;DHT22;11737;50.558;7.258;2022-11-23T08:18:45;10.90;99.90
23137;DHT22;11737;50.558;7.258;2022-11-23T08:21:14;10.90;99.90
23137;DHT22;11737;50.558;7.258;2022-11-23T08:23:42;10.90;99.90
23137;DHT22;11737;50.558;7.258;2022-11-23T08:26:09;11.00;99.90
23137;DHT22;11737;50.558;7.258;2022-11-23T08:28:37;11.00;99.90
23137;DHT22;11737;50.558;7.258;2022-11-23T08:31:09;11.00;99.90
23137;DHT22;11737;50.558;7.258;2022-11-23T08:36:25;11.10;99.90
23137;DHT22;11737;50.558;7.258;2022-11-23T08:38:52;11.10;99.90
23137;DHT22;11737;50.558;7.258;2022-11-23T08:41:20;11.10;99.90
23137;DHT22;11737;50.558;7.258;2022-11-23T08:43:47;11.10;99.90
23137;DHT22;11737;50.558;7.258;2022-11-23T08:46:15;11.10;99.90
23137;DHT22;11737;50.558;7.258;2022-11-23T08:48:43;11.10;99.90
23137;DHT22;11737;50.558;7.258;2022-11-23T08:51:11;11.10;99.90
23137;DHT22;11737;50.558;7.258;2022-11-23T08:53:38;11.20;99.90
23137;DHT22;11737;50.558;7.258;2022-11-23T08:56:06;11.30;99.90
23137;DHT22;11737;50.558;7.258;2022-11-23T08:58:35;11.30;99.90
23137;DHT22;11737;50.558;7.258;2022-11-23T09:01:10;11.40;99.90
23137;DHT22;11737;50.558;7.258;2022-11-23T09:03:38;11.40;99.90
23137;DHT22;11737;50.558;7.258;2022-11-23T09:06:05;11.40;99.90
23137;DHT22;11737;50.558;7.258;2022-11-23T09:08:34;11.50;99.90
23137;DHT22;11737;50.558;7.258;2022-11-23T09:11:03;11.50;99.90
23137;DHT22;11737;50.558;7.258;2022-11-23T09:13:33;11.60;99.90
23137;DHT22;11737;50.558;7.258;2022-11-23T09:16:01;11.60;99.90
23137;DHT22;11737;50.558;7.258;2022-11-23T09:18:29;11.60;99.90
23137;DHT22;11737;50.558;7.258;2022-11-23T09:20:57;11.70;99.90
23137;DHT22;11737;50.558;7.258;2022-11-23T09:23:25;11.70;99.90
23137;DHT22;11737;50.558;7.258;2022-11-23T09:25:53;11.80;99.90
23137;DHT22;11737;50.558;7.258;2022-11-23T09:28:20;11.80;99.90
23137;DHT22;11737;50.558;7.258;2022-11-23T09:30:49;11.90;99.90
23137;DHT22;11737;50.558;7.258;2022-11-23T09:33:17;12.00;99.90
23137;DHT22;11737;50.558;7.258;2022-11-23T09:35:44;12.10;99.90
23137;DHT22;11737;50.558;7.258;2022-11-23T09:38:12;12.10;99.90
23137;DHT22;11737;50.558;7.258;2022-11-23T09:40:40;12.20;99.90
23137;DHT22;11737;50.558;7.258;2022-11-23T09:43:14;12.30;99.90
23137;DHT22;11737;50.558;7.258;2022-11-23T09:45:49;12.40;99.90
23137;DHT22;11737;50.558;7.258;2022-11-23T09:48:40;12.40;99.90
23137;DHT22;11737;50.558;7.258;2022-11-23T09:51:17;12.50;99.90
23137;DHT22;11737;50.558;7.258;2022-11-23T09:56:36;12.60;99.90
23137;DHT22;11737;50.558;7.258;2022-11-23T10:01:53;12.60;99.90
23137;DHT22;11737;50.558;7.258;2022-11-23T10:04:21;12.60;99.90
23137;DHT22;11737;50.558;7.258;2022-11-23T10:06:55;12.60;99.90
23137;DHT22;11737;50.558;7.258;2022-11-23T10:09:50;12.60;99.90
23137;DHT22;11737;50.558;7.258;2022-11-23T10:12:30;12.60;99.90
23137;DHT22;11737;50.558;7.258;2022-11-23T10:25:53;12.50;99.90
23137;DHT22;11737;50.558;7.258;2022-11-23T10:28:22;12.50;99.90
23137;DHT22;11737;50.558;7.258;2022-11-23T10:33:39;12.70;99.90
23137;DHT22;11737;50.558;7.258;2022-11-23T10:36:02;12.80;99.90
23137;DHT22;11737;50.558;7.258;2022-11-23T10:38:30;13.00;99.90
23137;DHT22;11737;50.558;7.258;2022-11-23T10:41:04;13.10;99.90
23137;DHT22;11737;50.558;7.258;2022-11-23T10:44:18;13.20;99.90
23137;DHT22;11737;50.558;7.258;2022-11-23T10:46:42;13.30;99.90
23137;DHT22;11737;50.558;7.258;2022-11-23T10:54:31;13.70;99.90
23137;DHT22;11737;50.558;7.258;2022-11-23T10:57:00;13.80;99.90
23137;DHT22;11737;50.558;7.258;2022-11-23T10:59:34;13.80;99.90
23137;DHT22;11737;50.558;7.258;2022-11-23T11:05:30;13.90;99.90
23137;DHT22;11737;50.558;7.258;2022-11-23T11:08:00;13.90;99.90
23137;DHT22;11737;50.558;7.258;2022-11-23T11:10:40;14.00;99.90
23137;DHT22;11737;50.558;7.258;2022-11-23T11:16:02;14.00;99.90
23137;DHT22;11737;50.558;7.258;2022-11-23T11:18:32;14.20;99.90
23137;DHT22;11737;50.558;7.258;2022-11-23T11:21:04;14.20;99.90
23137;DHT22;11737;50.558;7.258;2022-11-23T11:23:32;14.30;99.90
23137;DHT22;11737;50.558;7.258;2022-11-23T11:26:17;14.40;99.90
23137;DHT22;11737;50.558;7.258;2022-11-23T11:28:46;14.40;99.90
23137;DHT22;11737;50.558;7.258;2022-11-23T11:37:41;14.50;99.90
23137;DHT22;11737;50.558;7.258;2022-11-23T11:40:27;14.50;99.90
23137;DHT22;11737;50.558;7.258;2022-11-23T11:42:55;14.50;99.90
23137;DHT22;11737;50.558;7.258;2022-11-23T11:51:25;14.40;99.90
23137;DHT22;11737;50.558;7.258;2022-11-23T11:54:02;14.40;99.90
23137;DHT22;11737;50.558;7.258;2022-11-23T11:59:40;14.50;99.90
23137;DHT22;11737;50.558;7.258;2022-11-23T12:02:23;14.60;99.90
23137;DHT22;11737;50.558;7.258;2022-11-23T12:04:56;14.50;99.90
23137;DHT22;11737;50.558;7.258;2022-11-23T12:10:08;14.50;99.90
23137;DHT22;11737;50.558;7.258;2022-11-23T12:12:35;14.40;99.90
23137;DHT22;11737;50.558;7.258;2022-11-23T12:15:04;14.40;99.90
23137;DHT22;11737;50.558;7.258;2022-11-23T12:17:49;14.30;99.90
23137;DHT22;11737;50.558;7.258;2022-11-23T12:23:29;14.40;99.90
23137;DHT22;11737;50.558;7.258;2022-11-23T12:26:19;14.50;99.90
23137;DHT22;11737;50.558;7.258;2022-11-23T12:31:43;14.70;99.90
23137;DHT22;11737;50.558;7.258;2022-11-23T12:34:25;14.60;99.90
23137;DHT22;11737;50.558;7.258;2022-11-23T12:37:07;14.70;99.90
23137;DHT22;11737;50.558;7.258;2022-11-23T12:54:22;14.00;99.90
23137;DHT22;11737;50.558;7.258;2022-11-23T12:57:03;14.00;99.90
23137;DHT22;11737;50.558;7.258;2022-11-23T12:59:42;13.90;99.90
23137;DHT22;11737;50.558;7.258;2022-11-23T13:02:09;14.00;99.90
23137;DHT22;11737;50.558;7.258;2022-11-23T13:05:30;14.20;99.90
23137;DHT22;11737;50.558;7.258;2022-11-23T13:23:49;14.30;99.90
23137;DHT22;11737;50.558;7.258;2022-11-23T13:26:25;14.20;99.90
23137;DHT22;11737;50.558;7.258;2022-11-23T13:32:34;14.00;99.90
23137;DHT22;11737;50.558;7.258;2022-11-23T13:35:02;13.90;99.90
23137;DHT22;11737;50.558;7.258;2022-11-23T13:37:30;13.80;99.90
23137;DHT22;11737;50.558;7.258;2022-11-23T13:40:01;13.60;99.90
23137;DHT22;11737;50.558;7.258;2022-11-23T13:42:31;13.60;99.90
23137;DHT22;11737;50.558;7.258;2022-11-23T13:45:13;13.60;99.90
23137;DHT22;11737;50.558;7.258;2022-11-23T13:47:41;13.60;99.90
23137;DHT22;11737;50.558;7.258;2022-11-23T13:50:17;13.60;99.90
23137;DHT22;11737;50.558;7.258;2022-11-23T13:52:48;13.50;99.90
23137;DHT22;11737;50.558;7.258;2022-11-23T13:55:21;13.40;99.90
23137;DHT22;11737;50.558;7.258;2022-11-23T14:01:10;13.30;99.90
23137;DHT22;11737;50.558;7.258;2022-11-23T14:03:53;13.10;99.90
23137;DHT22;11737;50.558;7.258;2022-11-23T14:06:47;12.90;99.90
23137;DHT22;11737;50.558;7.258;2022-11-23T14:09:27;12.90;99.90
23137;DHT22;11737;50.558;7.258;2022-11-23T14:14:28;12.70;99.90
23137;DHT22;11737;50.558;7.258;2022-11-23T14:17:28;12.60;99.90
23137;DHT22;11737;50.558;7.258;2022-11-23T14:25:28;12.50;99.90
23137;DHT22;11737;50.558;7.258;2022-11-23T14:31:20;12.50;99.90
23137;DHT22;11737;50.558;7.258;2022-11-23T14:33:58;12.50;99.90
23137;DHT22;11737;50.558;7.258;2022-11-23T14:42:00;12.60;99.90
23137;DHT22;11737;50.558;7.258;2022-11-23T14:44:29;12.50;99.90
23137;DHT22;11737;50.558;7.258;2022-11-23T14:46:59;12.60;99.90
23137;DHT22;11737;50.558;7.258;2022-11-23T14:49:27;12.60;99.90
23137;DHT22;11737;50.558;7.258;2022-11-23T14:51:56;12.60;99.90
23137;DHT22;11737;50.558;7.258;2022-11-23T14:54:23;12.60;99.90
23137;DHT22;11737;50.558;7.258;2022-11-23T14:56:53;12.60;99.90
23137;DHT22;11737;50.558;7.258;2022-11-23T14:59:26;12.60;99.90
23137;DHT22;11737;50.558;7.258;2022-11-23T15:02:02;12.60;99.90
23137;DHT22;11737;50.558;7.258;2022-11-23T15:04:32;12.60;99.90
23137;DHT22;11737;50.558;7.258;2022-11-23T15:09:50;12.60;99.90
23137;DHT22;11737;50.558;7.258;2022-11-23T15:12:26;12.60;99.90
23137;DHT22;11737;50.558;7.258;2022-11-23T15:14:55;12.60;99.90
23137;DHT22;11737;50.558;7.258;2022-11-23T15:17:25;12.60;99.90
23137;DHT22;11737;50.558;7.258;2022-11-23T15:20:00;12.60;99.90
23137;DHT22;11737;50.558;7.258;2022-11-23T15:22:36;12.50;99.90
23137;DHT22;11737;50.558;7.258;2022-11-23T15:27:55;12.50;99.90
23137;DHT22;11737;50.558;7.258;2022-11-23T15:30:28;12.50;99.90
23137;DHT22;11737;50.558;7.258;2022-11-23T15:33:01;12.50;99.90
23137;DHT22;11737;50.558;7.258;2022-11-23T15:38:24;12.50;99.90
23137;DHT22;11737;50.558;7.258;2022-11-23T15:40:52;12.50;99.90
23137;DHT22;11737;50.558;7.258;2022-11-23T15:43:22;12.40;99.90
23137;DHT22;11737;50.558;7.258;2022-11-23T15:48:33;12.40;99.90
23137;DHT22;11737;50.558;7.258;2022-11-23T15:50:59;12.40;99.90
23137;DHT22;11737;50.558;7.258;2022-11-23T15:56:21;12.40;99.90
23137;DHT22;11737;50.558;7.258;2022-11-23T15:58:50;12.30;99.90
23137;DHT22;11737;50.558;7.258;2022-11-23T16:01:19;12.30;99.90
23137;DHT22;11737;50.558;7.258;2022-11-23T16:03:49;12.30;99.90
23137;DHT22;11737;50.558;7.258;2022-11-23T16:06:38;12.20;99.90
23137;DHT22;11737;50.558;7.258;2022-11-23T16:09:01;12.30;99.90
23137;DHT22;11737;50.558;7.258;2022-11-23T16:11:32;12.30;99.90
23137;DHT22;11737;50.558;7.258;2022-11-23T16:14:11;12.30;99.90
23137;DHT22;11737;50.558;7.258;2022-11-23T16:16:39;12.30;99.90
23137;DHT22;11737;50.558;7.258;2022-11-23T16:19:21;12.20;99.90
23137;DHT22;11737;50.558;7.258;2022-11-23T16:24:37;12.10;99.90
23137;DHT22;11737;50.558;7.258;2022-11-23T16:27:12;12.00;99.90
23137;DHT22;11737;50.558;7.258;2022-11-23T16:29:40;11.90;99.90
23137;DHT22;11737;50.558;7.258;2022-11-23T16:32:26;12.00;99.90
23137;DHT22;11737;50.558;7.258;2022-11-23T16:34:56;11.90;99.90
23137;DHT22;11737;50.558;7.258;2022-11-23T16:37:23;11.90;99.90
23137;DHT22;11737;50.558;7.258;2022-11-23T16:39:52;11.80;99.90
23137;DHT22;11737;50.558;7.258;2022-11-23T16:42:19;11.80;99.90
23137;DHT22;11737;50.558;7.258;2022-11-23T16:44:47;11.80;99.90
23137;DHT22;11737;50.558;7.258;2022-11-23T16:47:20;11.70;99.90
23137;DHT22;11737;50.558;7.258;2022-11-23T16:49:48;11.60;99.90
23137;DHT22;11737;50.558;7.258;2022-11-23T16:52:17;11.60;99.90
23137;DHT22;11737;50.558;7.258;2022-11-23T16:54:45;11.50;99.90
23137;DHT22;11737;50.558;7.258;2022-11-23T17:00:15;11.40;99.90
23137;DHT22;11737;50.558;7.258;2022-11-23T17:02:43;11.20;99.90
23137;DHT22;11737;50.558;7.258;2022-11-23T17:05:16;11.10;99.90
23137;DHT22;11737;50.558;7.258;2022-11-23T17:07:44;10.90;99.90
23137;DHT22;11737;50.558;7.258;2022-11-23T17:10:12;10.90;99.90
23137;DHT22;11737;50.558;7.258;2022-11-23T17:12:54;10.80;99.90
23137;DHT22;11737;50.558;7.258;2022-11-23T17:15:22;10.70;99.90
23137;DHT22;11737;50.558;7.258;2022-11-23T17:17:50;10.60;99.90
23137;DHT22;11737;50.558;7.258;2022-11-23T17:20:18;10.60;99.90
23137;DHT22;11737;50.558;7.258;2022-11-23T17:22:45;10.60;99.90
23137;DHT22;11737;50.558;7.258;2022-11-23T17:25:14;10.50;99.90
23137;DHT22;11737;50.558;7.258;2022-11-23T17:27:43;10.50;99.90
23137;DHT22;11737;50.558;7.258;2022-11-23T17:30:20;10.50;99.90
23137;DHT22;11737;50.558;7.258;2022-11-23T17:32:42;10.60;99.90
23137;DHT22;11737;50.558;7.258;2022-11-23T17:35:09;10.60;99.90
23137;DHT22;11737;50.558;7.258;2022-11-23T17:37:37;10.50;99.90
23137;DHT22;11737;50.558;7.258;2022-11-23T17:40:12;10.50;99.90
23137;DHT22;11737;50.558;7.258;2022-11-23T17:42:35;10.50;99.90
23137;DHT22;11737;50.558;7.258;2022-11-23T17:45:03;10.50;99.90
23137;DHT22;11737;50.558;7.258;2022-11-23T17:47:30;10.50;99.90
23137;DHT22;11737;50.558;7.258;2022-11-23T17:49:58;10.40;99.90
23137;DHT22;11737;50.558;7.258;2022-11-23T17:52:25;10.40;99.90
23137;DHT22;11737;50.558;7.258;2022-11-23T17:54:53;10.40;99.90
23137;DHT22;11737;50.558;7.258;2022-11-23T17:57:25;10.50;99.90
23137;DHT22;11737;50.558;7.258;2022-11-23T17:59:53;10.40;99.90
23137;DHT22;11737;50.558;7.258;2022-11-23T18:02:21;10.40;99.90
23137;DHT22;11737;50.558;7.258;2022-11-23T18:04:48;10.40;99.90
23137;DHT22;11737;50.558;7.258;2022-11-23T18:07:16;10.40;99.90
23137;DHT22;11737;50.558;7.258;2022-11-23T18:09:44;10.40;99.90
23137;DHT22;11737;50.558;7.258;2022-11-23T18:12:11;10.40;99.90
23137;DHT22;11737;50.558;7.258;2022-11-23T18:14:38;10.40;99.90